Time;durP1;ratioP1;P1;durP2;ratioP2;P2;SDS_P1;SDS_P2;PMS_P1;PMS_P2;Temp;Humidity;BMP_temperature;BMP_pressure;BME280_temperature;BME280_humidity;BME280_pressure;Samples;Min_cycle;Max_cycle;Signal;HPM_P1;HPM_P2
2023/07/27 00:02:14;;;;;;;8.75;3.63;;;;;;;11.70;100.00;97229.34;5063764;28;20436;-79
2023/07/27 00:04:40;;;;;;;6.03;3.73;;;;;;;11.71;100.00;97230.97;5063136;28;20404;-79
2023/07/27 00:07:06;;;;;;;6.20;3.78;;;;;;;11.76;100.00;97226.47;5064073;28;20405;-79
2023/07/27 00:09:32;;;;;;;6.55;3.60;;;;;;;11.82;100.00;97229.94;5045435;28;20905;-79
2023/07/27 00:11:58;;;;;;;8.25;3.63;;;;;;;11.82;100.00;97235.25;5061157;28;20497;-79
2023/07/27 00:14:25;;;;;;;6.45;3.65;;;;;;;11.91;100.00;97234.47;5063251;28;20413;-79
2023/07/27 00:16:51;;;;;;;5.55;3.53;;;;;;;12.04;100.00;97230.50;5063112;28;20417;-79
2023/07/27 00:19:19;;;;;;;6.97;3.80;;;;;;;12.12;100.00;97221.22;5063848;28;20417;-79
2023/07/27 00:21:45;;;;;;;6.38;3.20;;;;;;;12.16;100.00;97215.13;5059479;28;20859;-76
2023/07/27 00:24:12;;;;;;;6.57;3.50;;;;;;;12.32;100.00;97218.59;5054174;28;20439;-77
2023/07/27 00:26:38;;;;;;;6.05;3.78;;;;;;;12.31;100.00;97209.84;5053024;28;20759;-75
2023/07/27 00:29:04;;;;;;;7.60;3.63;;;;;;;12.37;100.00;97205.31;5053056;28;21004;-76
2023/07/27 00:31:30;;;;;;;9.38;3.95;;;;;;;12.41;100.00;97199.19;5053616;28;20882;-79
2023/07/27 00:33:56;;;;;;;10.07;3.50;;;;;;;12.54;100.00;97197.06;5061942;28;20398;-79
2023/07/27 00:36:25;;;;;;;5.20;3.38;;;;;;;12.51;100.00;97194.94;5053243;28;20409;-79
2023/07/27 00:38:51;;;;;;;10.07;3.78;;;;;;;12.42;100.00;97192.03;5060716;28;20402;-76
2023/07/27 00:41:18;;;;;;;7.10;3.20;;;;;;;12.38;100.00;97201.59;5052702;28;20421;-76
2023/07/27 00:43:44;;;;;;;7.75;3.65;;;;;;;12.38;100.00;97197.09;5038725;28;20414;-79
2023/07/27 00:46:11;;;;;;;5.47;3.50;;;;;;;12.37;100.00;97186.72;5063185;28;20879;-79
2023/07/27 00:48:39;;;;;;;5.57;3.30;;;;;;;12.39;100.00;97189.91;5045245;28;20435;-79
2023/07/27 00:51:06;;;;;;;5.90;3.50;;;;;;;12.31;100.00;97190.47;5063137;28;20740;-79
2023/07/27 00:53:34;;;;;;;6.87;3.30;;;;;;;12.34;100.00;97185.41;5063395;28;20508;-79
2023/07/27 00:56:01;;;;;;;10.07;4.10;;;;;;;12.26;100.00;97183.28;5062822;28;20756;-79
2023/07/27 00:58:28;;;;;;;11.32;3.97;;;;;;;12.28;100.00;97183.00;5063497;28;20492;-79
2023/07/27 01:00:54;;;;;;;6.50;3.05;;;;;;;12.29;100.00;97181.97;5063397;28;20424;-79
2023/07/27 01:03:21;;;;;;;6.50;3.40;;;;;;;12.33;100.00;97175.03;5034652;28;20452;-76
2023/07/27 01:05:48;;;;;;;7.27;3.40;;;;;;;12.27;100.00;97182.22;5052422;28;20452;-76
2023/07/27 01:08:14;;;;;;;5.97;3.33;;;;;;;12.33;100.00;97175.03;5054673;28;20416;-79
2023/07/27 01:10:54;;;;;;;8.23;3.80;;;;;;;12.37;100.00;97173.47;5061821;28;20398;-79
2023/07/27 01:13:27;;;;;;;8.48;3.70;;;;;;;12.38;100.00;97175.84;5061953;28;20477;-79
2023/07/27 01:16:00;;;;;;;9.20;3.50;;;;;;;12.35;100.00;97165.75;5062136;28;20476;-79
2023/07/27 01:18:32;;;;;;;6.90;3.40;;;;;;;12.35;100.00;97165.75;5061736;28;20425;-78
2023/07/27 01:21:07;;;;;;;4.73;3.10;;;;;;;12.42;100.00;97152.22;5061661;28;20453;-79
2023/07/27 01:24:09;;;;;;;8.68;3.22;;;;;;;12.41;100.00;97159.38;5062634;28;20872;-79
2023/07/27 01:27:13;;;;;;;5.97;3.50;;;;;;;12.41;100.00;97156.72;5036560;28;20417;-79
2023/07/27 01:29:59;;;;;;;5.13;3.13;;;;;;;12.33;100.00;97149.28;5055863;28;20924;-79
2023/07/27 01:32:31;;;;;;;7.20;3.70;;;;;;;12.30;100.00;97151.69;5061438;28;20453;-79
2023/07/27 01:35:00;;;;;;;7.68;3.38;;;;;;;12.23;100.00;97154.63;5062707;28;20428;-79
2023/07/27 01:37:29;;;;;;;12.05;3.58;;;;;;;12.29;100.00;97147.44;5048349;28;20407;-77
2023/07/27 01:39:58;;;;;;;7.07;3.53;;;;;;;12.22;100.00;97142.41;5052516;28;20456;-76
2023/07/27 01:42:26;;;;;;;6.78;3.50;;;;;;;12.21;100.00;97135.53;5051677;28;20401;-77
2023/07/27 01:44:53;;;;;;;6.68;3.35;;;;;;;12.26;100.00;97130.19;5051784;28;20405;-76
2023/07/27 01:47:21;;;;;;;7.43;3.58;;;;;;;12.18;100.00;97128.09;5056438;28;20410;-79
2023/07/27 01:49:49;;;;;;;6.88;3.80;;;;;;;12.19;100.00;97131.53;5060744;28;20412;-78
2023/07/27 01:52:18;;;;;;;9.07;3.63;;;;;;;12.20;100.00;97133.13;5057754;28;20741;-77
2023/07/27 01:54:47;;;;;;;4.53;3.42;;;;;;;12.18;100.00;97127.31;5051023;28;20444;-76
2023/07/27 01:57:13;;;;;;;8.43;3.13;;;;;;;12.05;100.00;97117.22;5056359;28;20432;-79
2023/07/27 01:59:41;;;;;;;5.70;3.10;;;;;;;12.29;100.00;97119.06;5060448;28;20437;-79
2023/07/27 02:02:07;;;;;;;8.43;3.70;;;;;;;12.19;100.00;97112.97;5059804;28;20429;-79
2023/07/27 02:04:34;;;;;;;7.82;3.30;;;;;;;12.07;100.00;97107.94;5060002;28;20394;-79
2023/07/27 02:07:01;;;;;;;5.80;3.03;;;;;;;12.20;100.00;97117.22;5059381;28;20883;-79
2023/07/27 02:09:27;;;;;;;6.65;3.30;;;;;;;12.18;100.00;97106.84;5060304;28;20424;-79
2023/07/27 02:12:06;;;;;;;6.70;3.35;;;;;;;12.21;100.00;97108.19;5060019;28;20397;-79
2023/07/27 02:14:45;;;;;;;6.55;3.50;;;;;;;12.12;100.00;97099.97;5059305;28;20405;-79
2023/07/27 02:17:16;;;;;;;5.53;3.13;;;;;;;12.12;100.00;97101.81;5059135;28;20930;-78
2023/07/27 02:19:48;;;;;;;9.60;3.25;;;;;;;12.15;100.00;97106.59;5058580;28;20452;-78
2023/07/27 02:22:17;;;;;;;7.35;3.10;;;;;;;12.20;100.00;97102.09;5057981;28;20468;-78
2023/07/27 02:24:43;;;;;;;5.68;3.33;;;;;;;12.23;100.00;97096.25;5059196;28;20405;-79
2023/07/27 02:27:09;;;;;;;6.95;3.25;;;;;;;12.23;100.00;97101.56;5058167;28;20492;-78
2023/07/27 02:29:36;;;;;;;4.82;3.28;;;;;;;12.28;100.00;97093.56;5058181;28;20396;-78
2023/07/27 02:32:02;;;;;;;7.43;3.30;;;;;;;12.38;100.00;97095.41;5058125;28;20409;-79
2023/07/27 02:34:28;;;;;;;5.80;2.78;;;;;;;12.58;100.00;97092.69;5057541;28;20599;-79
2023/07/27 02:36:54;;;;;;;6.25;3.28;;;;;;;12.53;100.00;97091.94;5058844;28;20393;-79
2023/07/27 02:39:22;;;;;;;9.07;2.92;;;;;;;12.51;100.00;97089.53;5059085;28;20891;-79
2023/07/27 02:41:48;;;;;;;5.68;3.30;;;;;;;12.54;100.00;97085.56;5057639;28;20409;-78
2023/07/27 02:44:14;;;;;;;6.22;3.10;;;;;;;12.56;100.00;97080.75;5057470;28;20423;-79
2023/07/27 02:46:40;;;;;;;6.55;3.10;;;;;;;12.69;100.00;97074.88;5058028;28;20997;-78
2023/07/27 02:49:07;;;;;;;5.95;3.63;;;;;;;12.75;100.00;97077.25;5057949;28;20405;-78
2023/07/27 02:51:33;;;;;;;4.57;2.78;;;;;;;12.91;100.00;97080.63;5057758;28;20404;-78
2023/07/27 02:53:59;;;;;;;7.63;3.30;;;;;;;12.84;100.00;97071.38;5058828;28;20915;-78
2023/07/27 02:56:26;;;;;;;4.40;2.88;;;;;;;12.80;100.00;97077.22;5057392;28;20446;-78
2023/07/27 02:58:53;;;;;;;7.97;3.58;;;;;;;12.87;100.00;97081.44;5058851;28;20398;-79
2023/07/27 03:01:19;;;;;;;5.22;2.90;;;;;;;12.83;100.00;97069.78;5056926;28;20417;-78
2023/07/27 03:03:45;;;;;;;7.20;3.28;;;;;;;12.80;100.00;97074.56;5058479;28;20484;-78
2023/07/27 03:06:11;;;;;;;5.38;2.97;;;;;;;12.80;100.00;97073.75;5058392;28;20425;-79
2023/07/27 03:08:38;;;;;;;4.65;3.08;;;;;;;12.86;100.00;97069.22;5046070;28;20459;-76
2023/07/27 03:11:05;;;;;;;8.32;3.00;;;;;;;12.89;100.00;97074.00;5050244;28;20433;-76
2023/07/27 03:13:33;;;;;;;7.03;3.50;;;;;;;12.95;100.00;97075.56;5050354;28;20405;-76
2023/07/27 03:16:03;;;;;;;10.35;3.25;;;;;;;12.93;100.00;97069.75;5050076;28;20894;-76
2023/07/27 03:18:29;;;;;;;7.40;3.00;;;;;;;13.03;100.00;97069.66;5050411;28;20405;-76
2023/07/27 03:20:56;;;;;;;6.63;3.03;;;;;;;12.91;100.00;97071.88;5050117;28;20421;-76
2023/07/27 03:23:22;;;;;;;6.28;2.88;;;;;;;12.91;100.00;97074.53;5050302;28;20886;-76
2023/07/27 03:25:48;;;;;;;6.43;3.00;;;;;;;12.99;100.00;97069.44;5049965;28;20402;-76
2023/07/27 03:28:14;;;;;;;6.85;2.88;;;;;;;13.07;100.00;97076.03;5050142;28;20405;-76
2023/07/27 03:30:42;;;;;;;4.32;2.85;;;;;;;13.26;100.00;97068.25;5050160;28;20488;-77
2023/07/27 03:33:08;;;;;;;6.75;2.95;;;;;;;13.20;100.00;97072.00;5053378;28;20404;-78
2023/07/27 03:35:36;;;;;;;6.53;3.20;;;;;;;13.21;100.00;97068.28;5061148;28;20412;-78
2023/07/27 03:38:02;;;;;;;5.65;2.85;;;;;;;13.28;100.00;97056.28;5061719;28;20412;-78
2023/07/27 03:40:29;;;;;;;8.32;3.13;;;;;;;13.32;100.00;97056.50;5062375;28;20424;-78
2023/07/27 03:42:55;;;;;;;6.53;3.28;;;;;;;13.19;100.00;97052.59;5062361;28;20499;-78
2023/07/27 03:45:21;;;;;;;8.10;3.20;;;;;;;13.14;100.00;97052.63;5061680;28;20409;-78
2023/07/27 03:47:49;;;;;;;4.43;2.65;;;;;;;13.09;100.00;97052.63;5057833;28;20511;-75
2023/07/27 03:50:15;;;;;;;8.00;3.97;;;;;;;13.12;100.00;97054.75;5054936;28;20429;-78
2023/07/27 03:52:41;;;;;;;4.97;2.90;;;;;;;13.09;100.00;97053.41;5056352;28;20405;-78
2023/07/27 03:55:08;;;;;;;5.43;3.00;;;;;;;13.08;100.00;97051.06;5056632;28;20433;-77
2023/07/27 03:57:34;;;;;;;5.70;2.70;;;;;;;13.24;100.00;97041.13;5053746;28;20398;-77
2023/07/27 04:00:01;;;;;;;4.68;3.13;;;;;;;13.20;100.00;97045.44;5053659;28;20413;-77
2023/07/27 04:02:28;;;;;;;5.50;2.75;;;;;;;13.18;100.00;97038.50;5053756;28;20397;-77
2023/07/27 04:04:55;;;;;;;4.45;3.05;;;;;;;13.27;100.00;97036.06;5035528;28;20463;-76
2023/07/27 04:07:22;;;;;;;4.07;2.85;;;;;;;13.21;100.00;97033.72;5052829;28;20397;-77
2023/07/27 04:09:48;;;;;;;7.22;3.20;;;;;;;13.21;100.00;97025.75;5053270;28;20426;-77
2023/07/27 04:12:14;;;;;;;5.18;3.20;;;;;;;13.21;100.00;97023.88;5053463;28;20401;-77
2023/07/27 04:14:40;;;;;;;5.43;3.03;;;;;;;13.23;100.00;97023.63;5053427;28;20405;-77
2023/07/27 04:17:07;;;;;;;5.32;2.95;;;;;;;13.22;100.00;97025.47;5052911;28;20400;-77
2023/07/27 04:19:35;;;;;;;4.25;2.80;;;;;;;13.28;100.00;97027.03;5052942;28;20397;-77
2023/07/27 04:22:03;;;;;;;4.00;3.10;;;;;;;13.40;100.00;97021.34;5052322;28;20436;-77
2023/07/27 04:24:30;;;;;;;4.55;3.50;;;;;;;13.37;100.00;97024.59;5052824;28;20405;-77
2023/07/27 04:26:56;;;;;;;3.58;2.60;;;;;;;13.38;100.00;97023.50;5054603;28;20475;-78
2023/07/27 04:29:22;;;;;;;6.47;3.28;;;;;;;13.35;100.00;97029.38;5055068;28;20871;-77
2023/07/27 04:31:48;;;;;;;4.28;2.58;;;;;;;13.38;100.00;97029.59;5056567;28;20424;-77
2023/07/27 04:34:15;;;;;;;5.00;2.90;;;;;;;13.35;100.00;97029.38;5036852;28;20413;-77
2023/07/27 04:36:41;;;;;;;5.32;2.63;;;;;;;13.36;100.00;97023.78;5053367;28;20416;-77
2023/07/27 04:39:08;;;;;;;4.25;2.78;;;;;;;13.38;100.00;97020.84;5053463;28;20857;-77
2023/07/27 04:41:35;;;;;;;5.17;2.77;;;;;;;13.43;100.00;97024.25;5053270;28;20935;-77
2023/07/27 04:44:01;;;;;;;6.20;3.00;;;;;;;13.51;100.00;97017.56;5053430;28;20401;-77
2023/07/27 04:46:27;;;;;;;6.65;2.60;;;;;;;13.73;100.00;97025.09;5052103;28;20496;-77
2023/07/27 04:48:53;;;;;;;5.20;2.92;;;;;;;13.73;100.00;97025.09;5052765;28;20414;-77
2023/07/27 04:51:19;;;;;;;6.30;2.97;;;;;;;13.72;100.00;97015.50;5052573;28;20900;-77
2023/07/27 04:53:45;;;;;;;8.27;3.07;;;;;;;13.72;100.00;97013.66;5052643;28;20525;-77
2023/07/27 04:56:13;;;;;;;4.60;2.97;;;;;;;13.71;100.00;97021.91;5052974;28;20742;-77
2023/07/27 04:58:39;;;;;;;9.27;2.97;;;;;;;13.80;100.00;97020.22;5053433;28;20764;-77
2023/07/27 05:01:05;;;;;;;4.15;2.60;;;;;;;13.87;100.00;97023.34;5053261;28;20417;-77
2023/07/27 05:03:32;;;;;;;7.40;3.05;;;;;;;13.99;100.00;97026.41;5053019;28;20476;-77
2023/07/27 05:05:58;;;;;;;6.55;2.75;;;;;;;13.83;100.00;97017.03;5052694;28;20397;-77
2023/07/27 05:08:24;;;;;;;4.63;2.70;;;;;;;13.97;100.00;97017.94;5052853;28;20420;-77
2023/07/27 05:10:50;;;;;;;7.80;3.50;;;;;;;13.92;100.00;97016.09;5052329;28;20484;-77
2023/07/27 05:13:18;;;;;;;6.90;2.93;;;;;;;13.93;100.00;97030.22;5052378;28;20965;-77
2023/07/27 05:15:45;;;;;;;7.05;3.30;;;;;;;13.94;100.00;97021.16;5052278;28;20437;-77
2023/07/27 05:18:11;;;;;;;7.50;2.80;;;;;;;14.03;100.00;97027.47;5052716;28;20771;-77
2023/07/27 05:20:37;;;;;;;5.78;2.75;;;;;;;14.08;100.00;97022.06;5053249;28;20445;-78
2023/07/27 05:23:03;;;;;;;5.88;2.95;;;;;;;14.18;100.00;97029.16;5049630;28;20401;-78
2023/07/27 05:25:29;;;;;;;4.10;2.50;;;;;;;14.19;100.00;97017.44;5051974;28;20902;-78
2023/07/27 05:27:56;;;;;;;4.22;2.67;;;;;;;14.25;100.00;97032.28;5052299;28;20401;-78
2023/07/27 05:30:23;;;;;;;5.20;2.53;;;;;;;14.23;100.00;97018.47;5052709;28;20751;-77
2023/07/27 05:32:49;;;;;;;4.25;2.55;;;;;;;14.24;100.00;97015.53;5052411;28;20416;-78
2023/07/27 05:35:16;;;;;;;8.07;2.70;;;;;;;14.30;100.00;97017.03;5051403;28;20440;-77
2023/07/27 05:37:46;;;;;;;5.68;2.70;;;;;;;14.39;100.00;97011.91;5051789;28;20412;-77
2023/07/27 05:40:13;;;;;;;5.38;3.00;;;;;;;14.42;100.00;97010.56;5056363;28;20420;-78
2023/07/27 05:42:39;;;;;;;5.70;2.75;;;;;;;14.48;100.00;97012.09;5053903;28;20437;-78
2023/07/27 05:45:07;;;;;;;4.85;2.50;;;;;;;14.51;100.00;97008.88;5053156;28;20439;-78
2023/07/27 05:47:34;;;;;;;4.05;2.58;;;;;;;14.60;100.00;97023.13;5054576;28;20443;-77
2023/07/27 05:50:02;;;;;;;4.57;2.63;;;;;;;14.50;100.00;97009.94;5052288;28;20409;-78
2023/07/27 05:52:28;;;;;;;7.40;2.75;;;;;;;14.52;100.00;97021.88;5053743;28;20397;-78
2023/07/27 05:54:54;;;;;;;6.05;2.45;;;;;;;14.69;100.00;97013.41;5054008;28;20413;-78
2023/07/27 05:57:20;;;;;;;6.05;2.75;;;;;;;14.57;100.00;97008.53;5054337;28;20412;-81
2023/07/27 05:59:46;;;;;;;4.95;2.70;;;;;;;14.58;100.00;97003.97;5057389;28;20417;-80
2023/07/27 06:02:13;;;;;;;7.18;2.60;;;;;;;14.77;100.00;97009.31;5056264;28;20416;-81
2023/07/27 06:04:40;;;;;;;7.40;2.50;;;;;;;14.81;100.00;97007.69;5056676;28;20408;-79
2023/07/27 06:07:06;;;;;;;7.33;2.80;;;;;;;14.65;100.00;97009.75;5056053;28;20412;-79
2023/07/27 06:09:36;;;;;;;3.40;2.38;;;;;;;14.65;100.00;97012.41;5055315;28;20429;-79
2023/07/27 06:12:08;;;;;;;3.97;2.73;;;;;;;14.72;100.00;97018.19;5055603;28;20891;-80
2023/07/27 06:14:34;;;;;;;7.97;2.67;;;;;;;14.79;100.00;97015.16;5055591;28;20427;-78
2023/07/27 06:17:00;;;;;;;7.05;2.75;;;;;;;14.85;100.00;97012.16;5054691;28;20405;-79
2023/07/27 06:19:26;;;;;;;5.47;2.60;;;;;;;14.93;100.00;97016.84;5055474;28;20497;-79
2023/07/27 06:21:54;;;;;;;6.38;2.75;;;;;;;14.94;100.00;97015.75;5054025;28;20401;-79
2023/07/27 06:24:20;;;;;;;6.67;2.50;;;;;;;15.10;100.00;97019.81;5054106;28;20409;-79
2023/07/27 06:26:46;;;;;;;5.63;2.50;;;;;;;15.28;100.00;97015.53;5045892;28;20405;-79
2023/07/27 06:29:12;;;;;;;8.53;2.80;;;;;;;15.31;100.00;97016.81;5052545;28;20463;-79
2023/07/27 06:31:39;;;;;;;7.25;2.75;;;;;;;15.44;100.00;97016.06;5051709;28;20425;-78
2023/07/27 06:34:05;;;;;;;4.50;2.60;;;;;;;15.31;100.00;97012.28;5052277;28;20397;-78
2023/07/27 06:36:31;;;;;;;9.00;2.80;;;;;;;15.28;100.00;97017.41;5054394;28;20420;-77
2023/07/27 06:38:59;;;;;;;7.05;2.67;;;;;;;15.25;100.00;97010.00;5053891;28;20416;-77
2023/07/27 06:41:25;;;;;;;8.25;3.50;;;;;;;15.27;100.00;97005.94;5054860;28;20493;-80
2023/07/27 06:43:52;;;;;;;10.03;2.77;;;;;;;15.33;100.00;97009.34;5057545;28;20481;-79
2023/07/27 06:46:18;;;;;;;6.93;2.92;;;;;;;15.31;100.00;96998.16;5055729;28;20496;-78
2023/07/27 06:48:46;;;;;;;9.63;2.70;;;;;;;15.36;100.00;96995.41;5056156;28;20416;-78
2023/07/27 06:51:12;;;;;;;7.15;2.88;;;;;;;15.42;100.00;96997.69;5057923;28;20393;-79
2023/07/27 06:53:38;;;;;;;5.78;2.83;;;;;;;15.65;100.00;97000.56;5056345;28;20481;-81
2023/07/27 06:56:06;;;;;;;7.85;2.60;;;;;;;15.74;100.00;97004.94;5057091;28;20405;-80
2023/07/27 06:58:32;;;;;;;6.93;2.88;;;;;;;15.72;100.00;97001.75;5049306;28;20394;-78
2023/07/27 07:00:58;;;;;;;7.70;3.25;;;;;;;15.80;100.00;97001.09;5040353;28;20772;-78
2023/07/27 07:03:27;;;;;;;6.68;2.67;;;;;;;15.90;100.00;97000.13;5052253;28;20494;-78
2023/07/27 07:05:54;;;;;;;9.02;2.83;;;;;;;15.91;100.00;96992.91;5052332;28;20832;-78
2023/07/27 07:08:20;;;;;;;7.50;2.70;;;;;;;15.69;100.00;96994.38;5051066;28;20417;-78
2023/07/27 07:10:47;;;;;;;7.10;2.83;;;;;;;15.65;100.00;96988.00;5052653;28;20484;-77
2023/07/27 07:13:14;;;;;;;11.50;2.67;;;;;;;15.79;100.00;96991.50;5047899;28;20416;-79
2023/07/27 07:15:41;;;;;;;10.10;3.25;;;;;;;15.93;100.00;96993.44;5055971;28;20401;-79
2023/07/27 07:18:07;;;;;;;7.65;2.90;;;;;;;15.88;100.00;96995.09;5054857;28;20400;-79
2023/07/27 07:20:33;;;;;;;5.10;2.70;;;;;;;15.80;100.00;96990.41;5055377;28;20409;-79
2023/07/27 07:22:59;;;;;;;6.63;2.90;;;;;;;16.00;100.00;96989.28;5055859;28;20428;-79
2023/07/27 07:25:28;;;;;;;8.60;2.90;;;;;;;16.01;100.00;96982.88;5056298;28;20492;-79
2023/07/27 07:27:54;;;;;;;5.97;2.60;;;;;;;16.07;100.00;96988.88;5056832;28;20492;-79
2023/07/27 07:30:21;;;;;;;4.45;2.55;;;;;;;16.13;100.00;96977.03;5054768;28;20471;-78
2023/07/27 07:32:49;;;;;;;10.75;3.03;;;;;;;16.22;100.00;96983.25;5053770;28;20405;-79
2023/07/27 07:35:15;;;;;;;5.63;2.50;;;;;;;16.13;100.00;96980.47;5054800;28;20405;-79
2023/07/27 07:37:41;;;;;;;5.50;2.35;;;;;;;16.14;100.00;96970.59;5055146;28;20886;-79
2023/07/27 07:40:08;;;;;;;4.63;2.50;;;;;;;16.21;100.00;96971.78;5054936;28;20436;-78
2023/07/27 07:42:37;;;;;;;4.00;2.50;;;;;;;16.17;100.00;96962.78;5050785;28;20492;-79
2023/07/27 07:45:03;;;;;;;6.95;2.88;;;;;;;16.20;100.00;96966.72;5054021;28;20401;-79
2023/07/27 07:47:31;;;;;;;3.88;2.47;;;;;;;16.10;100.00;96959.69;5052541;28;20421;-79
2023/07/27 07:49:59;;;;;;;4.57;2.80;;;;;;;16.04;100.00;96958.22;5055661;28;20408;-79
2023/07/27 07:52:25;;;;;;;6.22;3.03;;;;;;;16.00;100.00;96965.25;5053188;28;20414;-78
2023/07/27 07:54:51;;;;;;;6.00;2.53;;;;;;;15.94;100.00;96960.31;5048267;28;20895;-79
2023/07/27 07:57:19;;;;;;;6.78;2.78;;;;;;;15.96;100.00;96956.25;5054790;28;20416;-79
2023/07/27 07:59:46;;;;;;;5.83;2.70;;;;;;;15.86;100.00;96959.88;5050739;28;20420;-78
2023/07/27 08:02:12;;;;;;;6.90;2.95;;;;;;;15.82;100.00;96950.09;5052362;28;20409;-78
2023/07/27 08:04:40;;;;;;;5.13;2.78;;;;;;;15.93;100.00;96954.19;5052433;28;20587;-79
2023/07/27 08:07:06;;;;;;;5.60;2.67;;;;;;;16.09;100.00;96943.97;5053720;28;20488;-79
2023/07/27 08:09:32;;;;;;;5.82;2.65;;;;;;;16.26;100.00;96941.50;5053718;28;20412;-78
2023/07/27 08:11:58;;;;;;;6.80;2.42;;;;;;;16.32;100.00;96944.84;5054224;28;20398;-79
2023/07/27 08:14:25;;;;;;;6.78;2.90;;;;;;;16.51;100.00;96948.22;5055620;28;20416;-79
2023/07/27 08:16:51;;;;;;;4.22;2.25;;;;;;;16.55;100.00;96941.16;5052261;28;20488;-78
2023/07/27 08:19:17;;;;;;;7.13;2.53;;;;;;;16.46;100.00;96940.31;5053185;28;20968;-79
2023/07/27 08:21:44;;;;;;;5.47;2.45;;;;;;;16.62;100.00;96938.91;5057416;28;20417;-78
2023/07/27 08:24:13;;;;;;;4.38;2.28;;;;;;;16.53;100.00;96930.00;5054793;28;20417;-78
2023/07/27 08:26:39;;;;;;;10.60;2.70;;;;;;;16.88;100.00;96923.09;5058591;28;20405;-79
2023/07/27 08:29:07;;;;;;;6.47;2.67;;;;;;;16.96;100.00;96917.03;5039772;28;20441;-78
2023/07/27 08:31:33;;;;;;;9.38;2.40;;;;;;;16.79;100.00;96923.03;5056925;28;20421;-78
2023/07/27 08:33:59;;;;;;;4.50;2.58;;;;;;;16.76;100.00;96914.84;5039933;28;20416;-80
2023/07/27 08:36:26;;;;;;;6.90;2.78;;;;;;;16.68;100.00;96910.22;5038946;28;20833;-78
2023/07/27 08:38:53;;;;;;;6.30;2.60;;;;;;;16.68;100.00;96907.53;5038299;28;20459;-80
2023/07/27 08:41:20;;;;;;;7.25;2.88;;;;;;;16.77;100.00;96913.72;5057048;28;20421;-82
2023/07/27 08:43:47;;;;;;;5.72;2.58;;;;;;;16.87;100.00;96903.59;5060005;28;20461;-82
2023/07/27 08:46:13;;;;;;;4.10;2.72;;;;;;;17.03;100.00;96912.06;5057687;28;20748;-78
2023/07/27 08:48:42;;;;;;;4.50;2.42;;;;;;;17.26;100.00;96905.63;5059071;28;20397;-78
2023/07/27 08:51:08;;;;;;;6.35;2.40;;;;;;;17.18;100.00;96906.34;5056216;28;20842;-79
2023/07/27 08:53:35;;;;;;;7.13;2.60;;;;;;;17.20;100.00;96903.38;5059153;28;20413;-78
2023/07/27 08:56:05;;;;;;;3.88;2.25;;;;;;;17.21;100.00;96894.25;5058390;28;20482;-79
2023/07/27 08:58:31;;;;;;;5.70;2.53;;;;;;;17.41;100.00;96886.50;5038269;28;20948;-83
2023/07/27 09:00:57;;;;;;;8.77;2.60;;;;;;;17.33;100.00;96886.44;5038715;28;20417;-83
2023/07/27 09:03:24;;;;;;;6.25;2.50;;;;;;;17.29;100.00;96877.47;5056934;28;20403;-83
2023/07/27 09:05:57;;;;;;;5.78;2.83;;;;;;;17.35;100.00;96877.03;5058182;28;20437;-82
2023/07/27 09:08:26;;;;;;;8.37;2.70;;;;;;;17.37;100.00;96879.38;5057750;28;20802;-82
2023/07/27 09:10:52;;;;;;;6.05;2.72;;;;;;;17.40;100.00;96879.56;5043134;28;20420;-80
2023/07/27 09:13:19;;;;;;;6.63;2.80;;;;;;;17.30;100.00;96874.47;5060494;28;20496;-81
2023/07/27 09:15:46;;;;;;;23.33;3.25;;;;;;;17.22;100.00;96872.53;5058443;28;20480;-81
2023/07/27 09:18:13;;;;;;;5.35;2.60;;;;;;;17.27;100.00;96880.44;5052778;28;21067;-78
2023/07/27 09:20:41;;;;;;;6.85;2.92;;;;;;;17.17;100.00;96885.25;5054471;28;20439;-79
2023/07/27 09:23:07;;;;;;;6.10;2.70;;;;;;;17.15;100.00;96882.88;5055785;28;20410;-79
2023/07/27 09:25:33;;;;;;;6.50;2.47;;;;;;;17.10;100.00;96884.88;5036282;28;20455;-78
2023/07/27 09:28:00;;;;;;;4.40;2.90;;;;;;;16.89;100.00;96885.38;5052959;28;20914;-78
2023/07/27 09:30:27;;;;;;;6.93;2.50;;;;;;;16.58;100.00;96895.94;5050461;28;20449;-79
2023/07/27 09:32:54;;;;;;;6.82;3.08;;;;;;;16.39;100.00;96894.50;5047479;28;20397;-78
2023/07/27 09:35:21;;;;;;;6.93;3.10;;;;;;;16.15;100.00;96898.22;5050688;28;20816;-78
2023/07/27 09:37:51;;;;;;;7.60;2.88;;;;;;;15.93;100.00;96897.31;5048626;28;20881;-78
2023/07/27 09:40:20;;;;;;;4.32;3.03;;;;;;;15.82;100.00;96899.38;5039542;28;20794;-78
2023/07/27 09:42:46;;;;;;;4.15;2.55;;;;;;;15.71;100.00;96898.00;5058167;28;20884;-79
2023/07/27 09:45:13;;;;;;;8.75;3.15;;;;;;;15.62;100.00;96897.91;5051586;28;20923;-78
2023/07/27 09:47:41;;;;;;;5.37;2.93;;;;;;;15.57;100.00;96897.97;5055355;28;20489;-79
2023/07/27 09:50:10;;;;;;;11.70;3.40;;;;;;;15.56;100.00;96893.75;5040225;28;20397;-79
2023/07/27 09:52:38;;;;;;;6.93;2.88;;;;;;;15.58;100.00;96890.75;5052596;28;20393;-76
2023/07/27 09:55:07;;;;;;;8.85;3.05;;;;;;;15.58;100.00;96885.44;5050706;28;20402;-76
2023/07/27 09:57:33;;;;;;;6.15;3.13;;;;;;;15.60;100.00;96883.25;5044759;28;20406;-76
2023/07/27 10:00:04;;;;;;;4.80;2.40;;;;;;;15.66;100.00;96874.88;5044977;28;20492;-77
2023/07/27 10:02:34;;;;;;;8.23;3.00;;;;;;;15.66;100.00;96874.06;5051478;28;20397;-77
2023/07/27 10:05:04;;;;;;;7.03;3.10;;;;;;;15.67;100.00;96870.31;5044902;28;20397;-77
2023/07/27 10:07:30;;;;;;;5.63;3.00;;;;;;;15.71;100.00;96869.41;5050728;28;20417;-77
2023/07/27 10:10:27;;;;;;;5.47;2.85;;;;;;;15.77;100.00;96865.59;5050938;28;20429;-77
2023/07/27 10:12:57;;;;;;;5.22;2.63;;;;;;;15.86;100.00;96873.72;5052102;28;20614;-77
2023/07/27 10:15:27;;;;;;;6.82;2.90;;;;;;;15.94;100.00;96872.22;5048637;28;20462;-76
2023/07/27 10:17:57;;;;;;;6.22;3.08;;;;;;;15.95;100.00;96874.56;5050336;28;20463;-77
2023/07/27 10:20:28;;;;;;;6.47;3.10;;;;;;;16.07;100.00;96869.53;5048253;28;20416;-77
2023/07/27 10:23:12;;;;;;;5.60;2.95;;;;;;;16.29;100.00;96860.78;5051198;28;20401;-78
2023/07/27 10:25:59;;;;;;;4.57;2.60;;;;;;;16.50;100.00;96847.78;5032097;28;20428;-77
2023/07/27 10:28:30;;;;;;;5.53;2.60;;;;;;;16.82;100.00;96860.97;5037695;28;20418;-78
2023/07/27 10:31:15;;;;;;;4.32;2.42;;;;;;;17.12;100.00;96851.41;5049889;28;20402;-77
2023/07/27 10:33:45;;;;;;;5.32;2.70;;;;;;;17.46;100.00;96866.84;5049448;28;20527;-78
2023/07/27 10:36:13;;;;;;;8.23;2.20;;;;;;;17.70;100.00;96856.59;5050785;28;20447;-78
2023/07/27 10:38:40;;;;;;;9.95;2.55;;;;;;;17.92;100.00;96849.56;5047989;28;20441;-78
2023/07/27 10:41:13;;;;;;;8.15;2.92;;;;;;;18.33;100.00;96854.56;5052811;28;20459;-78
2023/07/27 10:43:54;;;;;;;5.60;2.67;;;;;;;18.60;100.00;96840.88;5052571;28;20401;-79
2023/07/27 10:46:24;;;;;;;5.72;2.38;;;;;;;18.67;100.00;96835.81;5049654;28;20413;-79
2023/07/27 10:48:57;;;;;;;5.03;2.28;;;;;;;18.61;100.00;96834.41;5054610;28;20413;-78
2023/07/27 10:51:28;;;;;;;5.50;2.42;;;;;;;18.80;100.00;96832.19;5055346;28;20394;-79
2023/07/27 10:53:54;;;;;;;7.97;2.90;;;;;;;18.91;100.00;96824.63;5056515;28;20455;-80
2023/07/27 10:56:21;;;;;;;3.55;2.15;;;;;;;19.00;100.00;96819.25;5037513;28;20790;-81
2023/07/27 10:58:50;;;;;;;6.10;2.53;;;;;;;19.01;100.00;96826.19;5056353;28;20447;-79
2023/07/27 11:01:16;;;;;;;5.63;2.20;;;;;;;19.15;100.00;96810.69;5057374;28;20420;-80
2023/07/27 11:03:44;;;;;;;6.57;2.55;;;;;;;19.05;100.00;96819.06;5057594;28;20429;-79
2023/07/27 11:06:10;;;;;;;5.90;2.47;;;;;;;19.31;100.00;96806.38;5057708;28;20417;-80
2023/07/27 11:08:40;;;;;;;3.22;2.00;;;;;;;19.42;100.00;96814.84;5042508;28;20427;-80
2023/07/27 11:11:14;;;;;;;4.97;2.58;;;;;;;19.61;100.00;96813.41;5057666;28;20401;-79
2023/07/27 11:13:40;;;;;;;6.38;2.67;;;;;;;19.62;100.00;96817.63;5059354;28;20397;-80
2023/07/27 11:16:07;;;;;;;6.13;2.10;;;;;;;19.63;100.00;96813.84;5059252;28;20408;-79
2023/07/27 11:18:34;;;;;;;5.65;2.20;;;;;;;19.48;100.00;96805.53;5057559;28;20405;-78
2023/07/27 11:21:02;;;;;;;5.07;2.05;;;;;;;19.36;100.00;96800.81;5057442;28;20435;-79
2023/07/27 11:23:31;;;;;;;4.00;1.95;;;;;;;19.35;100.00;96807.28;5058016;28;20408;-79
2023/07/27 11:25:58;;;;;;;3.72;2.20;;;;;;;19.38;100.00;96800.50;5037064;28;20410;-78
2023/07/27 11:28:26;;;;;;;6.85;2.35;;;;;;;19.41;100.00;96810.59;5056653;28;20479;-79